createdAt,value
2023-04-30T00:00:00.526Z,1.1
2023-04-30T00:01:00.532Z,1.1
2023-04-30T00:02:00.559Z,1.1
2023-04-30T00:03:00.594Z,1.1
2023-04-30T00:04:00.553Z,1.1
2023-04-30T00:05:00.514Z,1.1
2023-04-30T00:06:00.493Z,1.1
2023-04-30T00:07:00.483Z,1.1
2023-04-30T00:08:00.600Z,1.1
2023-04-30T00:09:00.487Z,1.1
2023-04-30T00:10:00.510Z,1.1
2023-04-30T00:11:00.525Z,1.1
2023-04-30T00:12:00.541Z,1.1
2023-04-30T00:13:00.502Z,1.1
2023-04-30T00:14:00.496Z,1.1
2023-04-30T00:15:00.537Z,1.1
2023-04-30T00:16:00.524Z,1.1
2023-04-30T00:17:00.539Z,1.1
2023-04-30T00:18:00.540Z,1.1
2023-04-30T00:19:00.514Z,1.1
2023-04-30T00:20:00.549Z,1.1
2023-04-30T00:21:00.514Z,1.1
2023-04-30T00:22:00.499Z,1.1
2023-04-30T00:23:00.514Z,1.1
2023-04-30T00:24:00.513Z,1.1
2023-04-30T00:25:00.513Z,1.1
2023-04-30T00:26:00.618Z,1.1
2023-04-30T00:27:00.510Z,1.1
2023-04-30T00:28:00.504Z,1.1
2023-04-30T00:29:00.509Z,1.1
2023-04-30T00:30:00.560Z,1.1
2023-04-30T00:31:00.507Z,1.1
2023-04-30T00:32:00.551Z,1.1
2023-04-30T00:33:00.547Z,1.1
2023-04-30T00:34:00.529Z,1.1
2023-04-30T00:35:00.527Z,1.1
2023-04-30T00:36:00.511Z,1.1
2023-04-30T00:37:00.523Z,1.1
2023-04-30T00:38:00.583Z,1.1
2023-04-30T00:39:00.529Z,1.1
2023-04-30T00:40:00.591Z,1.1
2023-04-30T00:41:00.524Z,1.1
2023-04-30T00:42:00.530Z,1.1
2023-04-30T00:43:00.539Z,1.1
2023-04-30T00:44:00.520Z,1.1
2023-04-30T00:45:00.535Z,1.1
2023-04-30T00:46:00.550Z,1.1
2023-04-30T00:47:00.550Z,1.1
2023-04-30T00:48:00.647Z,1.1
2023-04-30T00:49:00.627Z,1.1
2023-04-30T00:50:00.582Z,1.1
2023-04-30T00:51:00.591Z,1.1
2023-04-30T00:52:00.536Z,1.1
2023-04-30T00:53:00.571Z,1.1
2023-04-30T00:54:00.558Z,1.1
2023-04-30T00:55:00.527Z,1.1
2023-04-30T00:56:00.531Z,1.1
2023-04-30T00:57:00.537Z,1.1
2023-04-30T00:58:00.541Z,1.1
2023-04-30T00:59:00.540Z,1.1
2023-04-30T01:00:00.531Z,1.1
2023-04-30T01:01:00.823Z,1.1
2023-04-30T01:02:00.635Z,1.1
2023-04-30T01:03:00.633Z,1.1
2023-04-30T01:04:00.580Z,1.1
2023-04-30T01:05:00.794Z,1.1
2023-04-30T01:06:00.909Z,1.1
2023-04-30T01:07:00.828Z,1.1
2023-04-30T01:08:00.776Z,1.1
2023-04-30T01:09:00.915Z,1.1
2023-04-30T01:10:00.963Z,1.1
2023-04-30T01:11:00.902Z,1.1
2023-04-30T01:12:00.783Z,1.1
2023-04-30T01:13:00.840Z,1.1
2023-04-30T01:14:00.855Z,1.1
2023-04-30T01:15:00.771Z,1.1
2023-04-30T01:16:00.690Z,1.1
2023-04-30T01:17:00.613Z,1.1
2023-04-30T01:18:00.777Z,1.1
2023-04-30T01:19:01.737Z,1.1
2023-04-30T01:20:00.788Z,1.1
2023-04-30T01:21:00.636Z,1.1
2023-04-30T01:22:00.590Z,1.1
2023-04-30T01:23:00.701Z,1.1
2023-04-30T01:24:00.573Z,1.1
2023-04-30T01:25:00.586Z,1.1
2023-04-30T01:26:00.574Z,1.1
2023-04-30T01:27:00.581Z,1.1
2023-04-30T01:28:00.579Z,1.1
2023-04-30T01:29:00.605Z,1.1
2023-04-30T01:30:00.773Z,1.1
2023-04-30T01:31:00.600Z,1.1
2023-04-30T01:32:00.616Z,1.1
2023-04-30T01:33:00.636Z,1.1
2023-04-30T01:34:00.575Z,1.1
2023-04-30T01:35:02.948Z,1.1
2023-04-30T01:36:00.563Z,1.1
2023-04-30T01:37:00.601Z,1.1
2023-04-30T01:38:00.597Z,1.1
2023-04-30T01:39:00.589Z,1.1
2023-04-30T01:40:00.686Z,1.1
2023-04-30T01:41:00.634Z,1.1
2023-04-30T01:42:00.581Z,1.1
2023-04-30T01:43:00.608Z,1.1
2023-04-30T01:44:00.584Z,1.1
2023-04-30T01:45:00.649Z,1.1
2023-04-30T01:46:00.620Z,1.1
2023-04-30T01:47:00.630Z,1.1
2023-04-30T01:48:00.718Z,1.1
2023-04-30T01:49:00.701Z,1.1
2023-04-30T01:50:00.723Z,1.1
2023-04-30T01:51:01.675Z,1.1
2023-04-30T01:52:00.645Z,1.1
2023-04-30T01:53:00.596Z,1.1
2023-04-30T01:54:00.601Z,1.1
2023-04-30T01:55:01.867Z,1.1
2023-04-30T01:56:00.602Z,1.1
2023-04-30T01:57:00.616Z,1.1
2023-04-30T01:58:00.632Z,1.1
2023-04-30T01:59:00.629Z,1.1
2023-04-30T02:00:01.098Z,1.1
2023-04-30T02:01:00.877Z,1.1
2023-04-30T02:02:00.967Z,1.1
2023-04-30T02:03:01.029Z,1.1
2023-04-30T02:04:01.074Z,1.1
2023-04-30T02:05:00.870Z,1.1
2023-04-30T02:06:00.910Z,1.1
2023-04-30T02:07:00.862Z,1.1
2023-04-30T02:08:00.858Z,1.1
2023-04-30T02:09:00.911Z,1.1
2023-04-30T02:10:01.082Z,1.1
2023-04-30T02:11:00.880Z,1.1
2023-04-30T02:12:00.882Z,1.1
2023-04-30T02:13:00.857Z,1.1
2023-04-30T02:14:00.880Z,1.1
2023-04-30T02:15:00.868Z,1.1
2023-04-30T02:16:00.924Z,1.1
2023-04-30T02:17:00.910Z,1.1
2023-04-30T02:18:00.910Z,1.1
2023-04-30T02:19:00.920Z,1.1
2023-04-30T02:20:00.969Z,1.1
2023-04-30T02:21:00.863Z,1.1
2023-04-30T02:22:00.904Z,1.1
2023-04-30T02:23:00.877Z,1.1
2023-04-30T02:24:00.869Z,1.1
2023-04-30T02:25:00.973Z,1.1
2023-04-30T02:26:00.911Z,1.1
2023-04-30T02:27:00.881Z,1.1
2023-04-30T02:28:00.869Z,1.1
2023-04-30T02:29:00.869Z,1.1
2023-04-30T02:30:01.005Z,1.1
2023-04-30T02:31:00.869Z,1.1
2023-04-30T02:32:00.885Z,1.1
2023-04-30T02:33:01.101Z,1.1
2023-04-30T02:34:00.906Z,1.1
2023-04-30T02:35:00.878Z,1.1
2023-04-30T02:36:00.901Z,1.1
2023-04-30T02:37:00.882Z,1.1
2023-04-30T02:38:00.877Z,1.1
2023-04-30T02:39:00.895Z,1.1
2023-04-30T02:40:01.023Z,1.1
2023-04-30T02:41:00.902Z,1.1
2023-04-30T02:42:00.879Z,1.1
2023-04-30T02:43:00.905Z,1.1
2023-04-30T02:44:00.907Z,1.1
2023-04-30T02:45:00.890Z,1.1
2023-04-30T02:46:00.941Z,1.1
2023-04-30T02:47:00.976Z,1.1
2023-04-30T02:48:01.032Z,1.1
2023-04-30T02:49:00.897Z,1.1
2023-04-30T02:50:01.006Z,1.1
2023-04-30T02:51:00.967Z,1.1
2023-04-30T02:52:00.905Z,1.1
2023-04-30T02:53:00.954Z,1.1
2023-04-30T02:54:00.910Z,1.1
2023-04-30T02:55:00.898Z,1.1
2023-04-30T02:56:00.999Z,1.1
2023-04-30T02:57:00.906Z,1.1
2023-04-30T02:58:00.921Z,1.1
2023-04-30T02:59:00.897Z,1.1
2023-04-30T03:00:03.074Z,1.1
2023-04-30T03:01:00.968Z,1.1
2023-04-30T03:02:00.896Z,1.1
2023-04-30T03:03:01.063Z,1.1
2023-04-30T03:04:00.903Z,1.1
2023-04-30T03:05:00.921Z,1.1
2023-04-30T03:06:00.980Z,1.1
2023-04-30T03:07:00.920Z,1.1
2023-04-30T03:08:00.903Z,1.1
2023-04-30T03:09:00.949Z,1.1
2023-04-30T03:10:01.056Z,1.1
2023-04-30T03:11:00.932Z,1.1
2023-04-30T03:12:01.647Z,1.1
2023-04-30T03:13:00.914Z,1.1
2023-04-30T03:14:00.933Z,1.1
2023-04-30T03:15:00.934Z,1.1
2023-04-30T03:16:01.107Z,1.1
2023-04-30T03:17:00.962Z,1.1
2023-04-30T03:18:01.008Z,1.1
2023-04-30T03:19:00.981Z,1.1
2023-04-30T03:20:01.599Z,1.1
2023-04-30T03:21:01.206Z,1.1
2023-04-30T03:22:01.104Z,1.1
2023-04-30T03:23:01.098Z,1.1
2023-04-30T03:24:00.931Z,1.1
2023-04-30T03:25:00.960Z,1.1
2023-04-30T03:26:00.955Z,1.1
2023-04-30T03:27:00.959Z,1.1
2023-04-30T03:28:00.998Z,1.1
2023-04-30T03:29:00.936Z,1.1
2023-04-30T03:30:01.257Z,1.1
2023-04-30T03:31:02.029Z,1.1
2023-04-30T03:32:01.082Z,1.1
2023-04-30T03:33:01.000Z,1.1
2023-04-30T03:34:01.016Z,1.1
2023-04-30T03:35:00.984Z,1.1
2023-04-30T03:36:00.952Z,1.1
2023-04-30T03:37:00.943Z,1.1
2023-04-30T03:38:00.945Z,1.1
2023-04-30T03:39:00.943Z,1.1
2023-04-30T03:40:01.103Z,1.1
2023-04-30T03:41:01.111Z,1.1
2023-04-30T03:42:01.009Z,1.1
2023-04-30T03:43:00.983Z,1.3
2023-04-30T03:44:00.980Z,1.5
2023-04-30T03:45:01.001Z,1.8
2023-04-30T03:46:01.021Z,2
2023-04-30T03:47:01.074Z,2.3
2023-04-30T03:48:01.022Z,2.7
2023-04-30T03:49:00.971Z,3
2023-04-30T03:50:01.208Z,3.5
2023-04-30T03:51:00.993Z,4.1
2023-04-30T03:52:01.029Z,4.9
2023-04-30T03:53:00.977Z,5.9
2023-04-30T03:54:01.004Z,6.6
2023-04-30T03:55:01.037Z,7.9
2023-04-30T03:56:00.999Z,9.4
2023-04-30T03:57:01.014Z,10.9
2023-04-30T03:58:00.998Z,12.5
2023-04-30T03:59:01.081Z,13.7
2023-04-30T04:00:01.164Z,15.8
2023-04-30T04:01:01.022Z,18.5
2023-04-30T04:02:01.071Z,20.9
2023-04-30T04:03:01.039Z,23.5
2023-04-30T04:04:01.034Z,26.8
2023-04-30T04:05:01.006Z,29.9
2023-04-30T04:06:01.059Z,33.6
2023-04-30T04:07:01.059Z,37.5
2023-04-30T04:08:01.014Z,39.8
2023-04-30T04:09:01.086Z,44.3
2023-04-30T04:10:01.101Z,50.5
2023-04-30T04:11:00.993Z,53.6
2023-04-30T04:12:01.021Z,59
2023-04-30T04:13:01.050Z,62.7
2023-04-30T04:14:01.023Z,69.8
2023-04-30T04:15:01.086Z,71.5
2023-04-30T04:16:01.122Z,77.7
2023-04-30T04:17:01.004Z,81.5
2023-04-30T04:18:01.121Z,87.6
2023-04-30T04:19:01.063Z,95.2
2023-04-30T04:20:01.188Z,96.4
2023-04-30T04:21:01.024Z,109.9
2023-04-30T04:22:01.055Z,116.7
2023-04-30T04:23:01.014Z,112.6
2023-04-30T04:24:01.043Z,128.4
2023-04-30T04:25:01.044Z,128.4
2023-04-30T04:26:01.026Z,138
2023-04-30T04:27:01.096Z,131.5
2023-04-30T04:28:01.035Z,146.5
2023-04-30T04:29:01.026Z,144.7
2023-04-30T04:30:01.167Z,171.1
2023-04-30T04:31:01.080Z,195.2
2023-04-30T04:32:01.193Z,183.8
2023-04-30T04:33:01.181Z,197.5
2023-04-30T04:34:01.052Z,233.5
2023-04-30T04:35:01.039Z,228
2023-04-30T04:36:01.057Z,242
2023-04-30T04:37:01.041Z,286.1
2023-04-30T04:38:01.117Z,296.6
2023-04-30T04:39:01.077Z,314.9
2023-04-30T04:40:01.291Z,303.8
2023-04-30T04:41:01.091Z,330.3
2023-04-30T04:42:02.078Z,326.4
2023-04-30T04:43:01.076Z,314.9
2023-04-30T04:44:01.096Z,303.8
2023-04-30T04:45:01.152Z,363.5
2023-04-30T04:46:01.149Z,367.8
2023-04-30T04:47:01.110Z,409.6
2023-04-30T04:48:01.122Z,390.5
2023-04-30T04:49:01.165Z,445.4
2023-04-30T04:50:01.219Z,472.9
2023-04-30T04:51:01.185Z,456.2
2023-04-30T04:52:01.142Z,445.4
2023-04-30T04:53:01.121Z,467.2
2023-04-30T04:54:01.302Z,490.1
2023-04-30T04:55:01.152Z,526.6
2023-04-30T04:56:01.164Z,565.7
2023-04-30T04:57:01.285Z,586.4
2023-04-30T04:58:02.120Z,593.4
2023-04-30T04:59:01.110Z,593.4
2023-04-30T05:00:01.189Z,668.8
2023-04-30T05:01:01.146Z,660.9
2023-04-30T05:02:01.379Z,710.1
2023-04-30T05:03:01.183Z,685.1
2023-04-30T05:04:01.248Z,762.9
2023-04-30T05:05:01.182Z,676.9
2023-04-30T05:06:01.149Z,744.8
2023-04-30T05:07:01.153Z,800.3
2023-04-30T05:08:01.164Z,891.2
2023-04-30T05:09:01.114Z,870.2
2023-04-30T05:10:01.170Z,891.2
2023-04-30T05:11:01.100Z,901.9
2023-04-30T05:12:01.246Z,980.7
2023-04-30T05:13:01.096Z,957.5
2023-04-30T05:14:01.094Z,992.5
2023-04-30T05:15:01.161Z,1016.5
2023-04-30T05:16:01.146Z,1028.7
2023-04-30T05:17:01.065Z,992.5
2023-04-30T05:18:01.124Z,1092.1
2023-04-30T05:19:01.101Z,1105.3
2023-04-30T05:20:01.169Z,1028.7
2023-04-30T05:21:01.177Z,980.7
2023-04-30T05:22:01.177Z,946.1
2023-04-30T05:23:01.123Z,1079.1
2023-04-30T05:24:01.134Z,1159.4
2023-04-30T05:25:01.079Z,1105.3
2023-04-30T05:26:01.102Z,1216.2
2023-04-30T05:27:01.091Z,1201.7
2023-04-30T05:28:01.091Z,1354.4
2023-04-30T05:29:01.160Z,1455.2
2023-04-30T05:30:01.210Z,1472.7
2023-04-30T05:31:01.126Z,1544.8
2023-04-30T05:32:01.140Z,1563.4
2023-04-30T05:33:01.144Z,1472.7
2023-04-30T05:34:01.112Z,1370.7
2023-04-30T05:35:01.103Z,1187.5
2023-04-30T05:36:01.133Z,1187.5
2023-04-30T05:37:01.074Z,1201.7
2023-04-30T05:38:01.125Z,1260.7
2023-04-30T05:39:01.117Z,1403.9
2023-04-30T05:40:01.114Z,1472.7
2023-04-30T05:41:01.118Z,1490.4
2023-04-30T05:42:01.101Z,1370.7
2023-04-30T05:43:01.171Z,1601.3
2023-04-30T05:44:01.072Z,1699.9
2023-04-30T05:45:01.128Z,1720.4
2023-04-30T05:46:01.190Z,1783.3
2023-04-30T05:47:01.124Z,1741
2023-04-30T05:48:01.131Z,1659.7
2023-04-30T05:49:01.155Z,1699.9
2023-04-30T05:50:01.150Z,1659.7
2023-04-30T05:51:00.542Z,1640
2023-04-30T05:52:00.568Z,1679.7
2023-04-30T05:53:00.526Z,1640
2023-04-30T05:54:00.530Z,1783.3
2023-04-30T05:55:00.758Z,1601.3
2023-04-30T05:56:00.543Z,1741
2023-04-30T05:57:00.671Z,1679.7
2023-04-30T05:58:00.559Z,1640
2023-04-30T05:59:00.568Z,1762
2023-04-30T06:00:01.163Z,1783.3
2023-04-30T06:01:00.586Z,1762
2023-04-30T06:02:00.558Z,1659.7
2023-04-30T06:03:00.593Z,1870.6
2023-04-30T06:04:00.593Z,1915.9
2023-04-30T06:05:00.603Z,1985.8
2023-04-30T06:06:00.597Z,2058.4
2023-04-30T06:07:00.542Z,2058.4
2023-04-30T06:08:00.593Z,2034
2023-04-30T06:09:00.556Z,2159.2
2023-04-30T06:10:00.729Z,2009.8
2023-04-30T06:11:00.628Z,1962.2
2023-04-30T06:12:00.552Z,2009.8
2023-04-30T06:13:00.619Z,2009.8
2023-04-30T06:14:00.598Z,2133.6
2023-04-30T06:15:00.630Z,2238.1
2023-04-30T06:16:00.571Z,2108.2
2023-04-30T06:17:00.725Z,2211.5
2023-04-30T06:18:00.686Z,2347.8
2023-04-30T06:19:00.559Z,2319.9
2023-04-30T06:20:00.782Z,2376
2023-04-30T06:21:00.564Z,2433.5
2023-04-30T06:22:00.671Z,2292.3
2023-04-30T06:23:01.536Z,2238.1
2023-04-30T06:24:00.608Z,2433.5
2023-04-30T06:25:00.598Z,2809
2023-04-30T06:26:00.572Z,2742.6
2023-04-30T06:27:00.564Z,2742.6
2023-04-30T06:28:00.571Z,2877.1
2023-04-30T06:29:00.598Z,2982.2
2023-04-30T06:30:01.289Z,3018
2023-04-30T06:31:00.606Z,2877.1
2023-04-30T06:32:01.608Z,2775.6
2023-04-30T06:33:00.641Z,2842.8
2023-04-30T06:34:00.576Z,2842.8
2023-04-30T06:35:00.596Z,2710.1
2023-04-30T06:36:00.590Z,2877.1
2023-04-30T06:37:00.588Z,2877.1
2023-04-30T06:38:00.605Z,2946.7
2023-04-30T06:39:00.660Z,2877.1
2023-04-30T06:40:00.765Z,3054.3
2023-04-30T06:41:00.578Z,3165.8
2023-04-30T06:42:00.588Z,3165.8
2023-04-30T06:43:00.589Z,3281.6
2023-04-30T06:44:00.598Z,3361
2023-04-30T06:45:00.651Z,3442.3
2023-04-30T06:46:00.792Z,3442.3
2023-04-30T06:47:00.587Z,3483.7
2023-04-30T06:48:00.656Z,3483.7
2023-04-30T06:49:00.605Z,3483.7
2023-04-30T06:50:00.760Z,3321.1
2023-04-30T06:51:00.596Z,3204.1
2023-04-30T06:52:00.629Z,3242.6
2023-04-30T06:53:00.682Z,3525.6
2023-04-30T06:54:00.623Z,3698.5
2023-04-30T06:55:00.620Z,3833.5
2023-04-30T06:56:00.648Z,3879.6
2023-04-30T06:57:00.598Z,3926.3
2023-04-30T06:58:00.659Z,3926.3
2023-04-30T06:59:00.836Z,3926.3
2023-04-30T07:00:02.480Z,3742.9
2023-04-30T07:01:00.735Z,3611.1
2023-04-30T07:02:00.811Z,3611.1
2023-04-30T07:03:00.669Z,3568
2023-04-30T07:04:00.668Z,3568
2023-04-30T07:05:00.639Z,3525.6
2023-04-30T07:06:00.670Z,3568
2023-04-30T07:07:00.629Z,3654.5
2023-04-30T07:08:00.633Z,3611.1
2023-04-30T07:09:00.633Z,3788
2023-04-30T07:10:00.798Z,3833.5
2023-04-30T07:11:00.613Z,3879.6
2023-04-30T07:12:00.617Z,3926.3
2023-04-30T07:13:00.618Z,3973.5
2023-04-30T07:14:00.633Z,3973.5
2023-04-30T07:15:00.653Z,3879.6
2023-04-30T07:16:00.662Z,3973.5
2023-04-30T07:17:00.631Z,4021.3
2023-04-30T07:18:00.854Z,4021.3
2023-04-30T07:19:00.628Z,4118.8
2023-04-30T07:20:00.737Z,4021.3
2023-04-30T07:21:00.609Z,4021.3
2023-04-30T07:22:00.629Z,4021.3
2023-04-30T07:23:00.629Z,4021.3
2023-04-30T07:24:00.624Z,3973.5
2023-04-30T07:25:02.190Z,4118.8
2023-04-30T07:26:00.629Z,4168.3
2023-04-30T07:27:00.632Z,4021.3
2023-04-30T07:28:00.652Z,4118.8
2023-04-30T07:29:00.662Z,4168.3
2023-04-30T07:30:00.789Z,4320.5
2023-04-30T07:31:00.635Z,4425
2023-04-30T07:32:00.790Z,4269.1
2023-04-30T07:33:00.779Z,4021.3
2023-04-30T07:34:00.833Z,3973.5
2023-04-30T07:35:00.715Z,4069.8
2023-04-30T07:36:00.678Z,4425
2023-04-30T07:37:00.708Z,5294.6
2023-04-30T07:38:00.753Z,5422.7
2023-04-30T07:39:00.707Z,4320.5
2023-04-30T07:40:00.851Z,4218.4
2023-04-30T07:41:00.669Z,4425
2023-04-30T07:42:00.692Z,4869.3
2023-04-30T07:43:00.722Z,5358.2
2023-04-30T07:44:00.696Z,5967.1
2023-04-30T07:45:00.707Z,5047.1
2023-04-30T07:46:00.823Z,5231.6
2023-04-30T07:47:00.791Z,5107.8
2023-04-30T07:48:00.778Z,5231.6
2023-04-30T07:49:00.694Z,4754.3
2023-04-30T07:50:01.116Z,4642
2023-04-30T07:51:00.724Z,5107.8
2023-04-30T07:52:00.674Z,5756.7
2023-04-30T07:53:00.740Z,5107.8
2023-04-30T07:54:00.672Z,5358.2
2023-04-30T07:55:00.773Z,6259.4
2023-04-30T07:56:00.965Z,5620.7
2023-04-30T07:57:00.657Z,5826.2
2023-04-30T07:58:00.695Z,5756.7
2023-04-30T07:59:00.685Z,5688.3
2023-04-30T08:00:02.401Z,3742.9
2023-04-30T08:01:00.662Z,2982.2
2023-04-30T08:02:00.674Z,3611.1
2023-04-30T08:03:01.015Z,4372.4
2023-04-30T08:04:00.934Z,4372.4
2023-04-30T08:05:00.686Z,4168.3
2023-04-30T08:06:00.783Z,4320.5
2023-04-30T08:07:00.687Z,4320.5
2023-04-30T08:08:00.700Z,4372.4
2023-04-30T08:09:00.692Z,3788
2023-04-30T08:10:00.802Z,4811.5
2023-04-30T08:11:00.709Z,5231.6
2023-04-30T08:12:00.670Z,6334.7
2023-04-30T08:13:00.676Z,5553.9
2023-04-30T08:14:00.712Z,5294.6
2023-04-30T08:15:00.720Z,4697.8
2023-04-30T08:16:00.802Z,4372.4
2023-04-30T08:17:00.825Z,4532.1
2023-04-30T08:18:00.778Z,4586.8
2023-04-30T08:19:00.719Z,4218.4
2023-04-30T08:20:00.862Z,4425
2023-04-30T08:21:00.688Z,4425
2023-04-30T08:22:00.852Z,4532.1
2023-04-30T08:23:00.679Z,4987.1
2023-04-30T08:24:00.712Z,5294.6
2023-04-30T08:25:00.690Z,4754.3
2023-04-30T08:26:00.719Z,4642
2023-04-30T08:27:00.749Z,4532.1
2023-04-30T08:28:00.762Z,5231.6
2023-04-30T08:29:00.815Z,5047.1
2023-04-30T08:30:00.837Z,4987.1
2023-04-30T08:31:01.745Z,5169.5
2023-04-30T08:32:00.765Z,5047.1
2023-04-30T08:33:00.796Z,3879.6
2023-04-30T08:34:00.711Z,3525.6
2023-04-30T08:35:00.737Z,4642
2023-04-30T08:36:00.834Z,3442.3
2023-04-30T08:37:00.813Z,3281.6
2023-04-30T08:38:00.996Z,5487.9
2023-04-30T08:39:00.874Z,5169.5
2023-04-30T08:40:01.259Z,4987.1
2023-04-30T08:41:00.880Z,5231.6
2023-04-30T08:42:01.021Z,4987.1
2023-04-30T08:43:00.998Z,5047.1
2023-04-30T08:44:01.114Z,5231.6
2023-04-30T08:45:00.965Z,5107.8
2023-04-30T08:46:01.105Z,5487.9
2023-04-30T08:47:00.948Z,5169.5
2023-04-30T08:48:01.049Z,4069.8
2023-04-30T08:49:00.921Z,3401.4
2023-04-30T08:50:01.274Z,4118.8
2023-04-30T08:51:00.944Z,4372.4
2023-04-30T08:52:02.116Z,4425
2023-04-30T08:53:00.938Z,4642
2023-04-30T08:54:01.100Z,4987.1
2023-04-30T08:55:01.131Z,3654.5
2023-04-30T08:56:01.006Z,3788
2023-04-30T08:57:00.975Z,3568
2023-04-30T08:58:00.937Z,5358.2
2023-04-30T08:59:00.971Z,4320.5
2023-04-30T09:00:03.261Z,5688.3
2023-04-30T09:01:01.888Z,5826.2
2023-04-30T09:02:00.826Z,4642
2023-04-30T09:03:00.913Z,6038.9
2023-04-30T09:04:00.837Z,5169.5
2023-04-30T09:05:00.801Z,4987.1
2023-04-30T09:06:01.057Z,5487.9
2023-04-30T09:07:02.327Z,4754.3
2023-04-30T09:08:04.028Z,6410.8
2023-04-30T09:09:00.796Z,6566.3
2023-04-30T09:10:01.173Z,4532.1
2023-04-30T09:11:00.766Z,5896.2
2023-04-30T09:12:00.790Z,5553.9
2023-04-30T09:13:00.819Z,5487.9
2023-04-30T09:14:00.843Z,6038.9
2023-04-30T09:15:00.782Z,6410.8
2023-04-30T09:16:00.811Z,6566.3
2023-04-30T09:17:00.762Z,6487.9
2023-04-30T09:18:00.827Z,5826.2
2023-04-30T09:19:00.775Z,6334.7
2023-04-30T09:20:00.886Z,6725.2
2023-04-30T09:21:00.800Z,6410.8
2023-04-30T09:22:00.797Z,6038.9
2023-04-30T09:23:00.783Z,5620.7
2023-04-30T09:24:00.795Z,5422.7
2023-04-30T09:25:00.986Z,5358.2
2023-04-30T09:26:00.900Z,5169.5
2023-04-30T09:27:00.813Z,4532.1
2023-04-30T09:28:00.809Z,4987.1
2023-04-30T09:29:00.809Z,4532.1
2023-04-30T09:30:00.928Z,5231.6
2023-04-30T09:31:00.947Z,4869.3
2023-04-30T09:32:00.894Z,4869.3
2023-04-30T09:33:00.886Z,4811.5
2023-04-30T09:34:00.823Z,4869.3
2023-04-30T09:35:00.850Z,4987.1
2023-04-30T09:36:00.828Z,4987.1
2023-04-30T09:37:00.784Z,5047.1
2023-04-30T09:38:00.832Z,4754.3
2023-04-30T09:39:00.796Z,4697.8
2023-04-30T09:40:00.869Z,4642
2023-04-30T09:41:00.826Z,4811.5
2023-04-30T09:42:00.850Z,4586.8
2023-04-30T09:43:00.823Z,4586.8
2023-04-30T09:44:00.835Z,4927.9
2023-04-30T09:45:00.879Z,4987.1
2023-04-30T09:46:00.862Z,5107.8
2023-04-30T09:47:00.825Z,6111.5
2023-04-30T09:48:15.806Z,5553.9
2023-04-30T09:49:00.859Z,4754.3
2023-04-30T09:50:00.870Z,4642
2023-04-30T09:51:00.857Z,4754.3
2023-04-30T09:52:00.812Z,4642
2023-04-30T09:53:00.888Z,4754.3
2023-04-30T09:54:00.880Z,4811.5
2023-04-30T09:55:00.859Z,4754.3
2023-04-30T09:56:00.838Z,4642
2023-04-30T09:57:00.858Z,4754.3
2023-04-30T09:58:00.944Z,4754.3
2023-04-30T09:59:00.830Z,5107.8
2023-04-30T10:00:01.383Z,5358.2
2023-04-30T10:01:00.910Z,6038.9
2023-04-30T10:02:00.849Z,6566.3
2023-04-30T10:03:00.945Z,6111.5
2023-04-30T10:04:00.901Z,5756.7
2023-04-30T10:05:01.951Z,5896.2
2023-04-30T10:06:00.851Z,5826.2
2023-04-30T10:07:00.893Z,5553.9
2023-04-30T10:08:00.832Z,3242.6
2023-04-30T10:09:00.851Z,5231.6
2023-04-30T10:10:00.900Z,4927.9
2023-04-30T10:11:00.830Z,4869.3
2023-04-30T10:12:00.831Z,4586.8
2023-04-30T10:13:00.829Z,4927.9
2023-04-30T10:14:00.910Z,4927.9
2023-04-30T10:15:00.845Z,5047.1
2023-04-30T10:16:00.853Z,4697.8
2023-04-30T10:17:00.950Z,5358.2
2023-04-30T10:18:01.011Z,5487.9
2023-04-30T10:19:01.760Z,5756.7
2023-04-30T10:20:00.893Z,3525.6
2023-04-30T10:21:00.849Z,5358.2
2023-04-30T10:22:00.863Z,5107.8
2023-04-30T10:23:00.846Z,5358.2
2023-04-30T10:24:00.871Z,5231.6
2023-04-30T10:25:01.010Z,5231.6
2023-04-30T10:26:00.914Z,5231.6
2023-04-30T10:27:00.815Z,5231.6
2023-04-30T10:28:02.593Z,5487.9
2023-04-30T10:29:00.819Z,6259.4
2023-04-30T10:30:01.019Z,6970.7
2023-04-30T10:31:02.021Z,7225.2
2023-04-30T10:32:00.897Z,5967.1
2023-04-30T10:33:00.927Z,6410.8
2023-04-30T10:34:00.820Z,5896.2
2023-04-30T10:35:00.849Z,6970.7
2023-04-30T10:36:00.813Z,7670.6
2023-04-30T10:37:00.815Z,7312.1
2023-04-30T10:38:00.846Z,6645.2
2023-04-30T10:39:00.876Z,6185
2023-04-30T10:40:00.880Z,5967.1
2023-04-30T10:41:00.824Z,5896.2
2023-04-30T10:42:00.991Z,5553.9
2023-04-30T10:43:00.830Z,5756.7
2023-04-30T10:44:01.989Z,5826.2
2023-04-30T10:45:00.830Z,6185
2023-04-30T10:46:01.037Z,6410.8
2023-04-30T10:47:00.875Z,6410.8
2023-04-30T10:48:00.886Z,6111.5
2023-04-30T10:49:00.837Z,6259.4
2023-04-30T10:50:00.840Z,5756.7
2023-04-30T10:51:00.839Z,6725.2
2023-04-30T10:52:00.849Z,6566.3
2023-04-30T10:53:01.986Z,6038.9
2023-04-30T10:54:00.844Z,6185
2023-04-30T10:55:00.835Z,6185
2023-04-30T10:56:01.126Z,5756.7
2023-04-30T10:57:00.957Z,5826.2
2023-04-30T10:58:00.902Z,6185
2023-04-30T10:59:00.874Z,6334.7
2023-04-30T11:00:00.943Z,6487.9
2023-04-30T11:01:00.994Z,6487.9
2023-04-30T11:02:01.252Z,7139.4
2023-04-30T11:03:01.224Z,7670.6
2023-04-30T11:04:01.003Z,8143.1
2023-04-30T11:05:00.992Z,8241
2023-04-30T11:06:00.968Z,7950.7
2023-04-30T11:07:00.945Z,7670.6
2023-04-30T11:08:00.918Z,7489.4
2023-04-30T11:09:00.884Z,7762.9
2023-04-30T11:10:00.879Z,7856.2
2023-04-30T11:11:00.887Z,8143.1
2023-04-30T11:12:00.874Z,8046.3
2023-04-30T11:13:01.760Z,8046.3
2023-04-30T11:14:00.895Z,8645
2023-04-30T11:15:01.048Z,9177.5
2023-04-30T11:16:01.171Z,9287.8
2023-04-30T11:17:01.028Z,9627.4
2023-04-30T11:18:01.403Z,9513
2023-04-30T11:19:01.088Z,9399.5
2023-04-30T11:20:01.298Z,9287.8
2023-04-30T11:21:01.140Z,9287.8
2023-04-30T11:22:01.109Z,9068.4
2023-04-30T11:23:01.190Z,6970.7
2023-04-30T11:24:01.109Z,7762.9
2023-04-30T11:25:01.180Z,6334.7
2023-04-30T11:26:01.174Z,6887.9
2023-04-30T11:27:01.058Z,5967.1
2023-04-30T11:28:01.145Z,7054.5
2023-04-30T11:29:01.127Z,5620.7
2023-04-30T11:30:01.283Z,5620.7
2023-04-30T11:31:01.184Z,6725.2
2023-04-30T11:32:01.095Z,6806
2023-04-30T11:33:01.020Z,7139.4
2023-04-30T11:34:01.019Z,7489.4
2023-04-30T11:35:00.937Z,6806
2023-04-30T11:36:00.916Z,6410.8
2023-04-30T11:37:00.906Z,7054.5
2023-04-30T11:38:00.904Z,6806
2023-04-30T11:39:00.920Z,7139.4
2023-04-30T11:40:00.918Z,7225.2
2023-04-30T11:41:00.889Z,7670.6
2023-04-30T11:42:00.887Z,8241
2023-04-30T11:43:00.916Z,8440.8
2023-04-30T11:44:00.893Z,8645
2023-04-30T11:45:00.891Z,7489.4
2023-04-30T11:46:00.891Z,7950.7
2023-04-30T11:47:01.007Z,8340.5
2023-04-30T11:48:00.971Z,8440.8
2023-04-30T11:49:00.913Z,8440.8
2023-04-30T11:50:00.908Z,8542.3
2023-04-30T11:51:00.904Z,8645
2023-04-30T11:52:00.953Z,8645
2023-04-30T11:53:00.827Z,8542.3
2023-04-30T11:54:00.809Z,8241
2023-04-30T11:55:00.791Z,8241
2023-04-30T11:56:00.752Z,7762.9
2023-04-30T11:57:00.709Z,7400.4
2023-04-30T11:58:00.672Z,7489.4
2023-04-30T11:59:00.660Z,7670.6
2023-04-30T12:00:00.614Z,7139.4
2023-04-30T12:01:00.628Z,8143.1
2023-04-30T12:02:00.616Z,8854.2
2023-04-30T12:03:00.910Z,8440.8
2023-04-30T12:04:00.647Z,9399.5
2023-04-30T12:05:00.533Z,9399.5
2023-04-30T12:06:00.658Z,9287.8
2023-04-30T12:07:00.528Z,8542.3
2023-04-30T12:08:00.532Z,8046.3
2023-04-30T12:09:00.506Z,8645
2023-04-30T12:10:00.558Z,8854.2
2023-04-30T12:11:00.508Z,9068.4
2023-04-30T12:12:00.502Z,9513
2023-04-30T12:13:00.500Z,8749
2023-04-30T12:14:00.498Z,9513
2023-04-30T12:15:00.499Z,9287.8
2023-04-30T12:16:00.552Z,8440.8
2023-04-30T12:17:00.549Z,8645
2023-04-30T12:18:00.557Z,9287.8
2023-04-30T12:19:00.548Z,9068.4
2023-04-30T12:20:00.505Z,8749
2023-04-30T12:21:00.514Z,8854.2
2023-04-30T12:22:00.624Z,7950.7
2023-04-30T12:23:00.502Z,9177.5
2023-04-30T12:24:03.211Z,8542.3
2023-04-30T12:25:00.499Z,9979
2023-04-30T12:26:00.500Z,9979
2023-04-30T12:27:00.527Z,9979
2023-04-30T12:28:00.528Z,10099
2023-04-30T12:29:00.513Z,7762.9
2023-04-30T12:30:00.519Z,8241
2023-04-30T12:31:00.564Z,8960.7
2023-04-30T12:32:00.680Z,10467.7
2023-04-30T12:33:00.682Z,9068.4
2023-04-30T12:34:00.510Z,10980.9
2023-04-30T12:35:00.545Z,10467.7
2023-04-30T12:36:00.506Z,9860.4
2023-04-30T12:37:00.540Z,9287.8
2023-04-30T12:38:00.702Z,9068.4
2023-04-30T12:39:00.528Z,9068.4
2023-04-30T12:40:00.570Z,9513
2023-04-30T12:41:02.032Z,8854.2
2023-04-30T12:42:00.517Z,9177.5
2023-04-30T12:43:00.516Z,9068.4
2023-04-30T12:44:00.517Z,8854.2
2023-04-30T12:45:00.594Z,8854.2
2023-04-30T12:46:00.584Z,8749
2023-04-30T12:47:00.554Z,8440.8
2023-04-30T12:48:00.583Z,8645
2023-04-30T12:49:00.521Z,8542.3
2023-04-30T12:50:00.542Z,8749
2023-04-30T12:51:00.533Z,9068.4
2023-04-30T12:52:00.545Z,9399.5
2023-04-30T12:53:00.559Z,8960.7
2023-04-30T12:54:00.626Z,8046.3
2023-04-30T12:55:00.530Z,7139.4
2023-04-30T12:56:00.568Z,6970.7
2023-04-30T12:57:00.556Z,6806
2023-04-30T12:58:00.532Z,4425